sensor_id;sensor_type;location;lat;lon;timestamp;P1;durP1;ratioP1;P2;durP2;ratioP2
48363;SDS011;34170;54.364;18.582;2024-01-30T00:00:56;42.17;;;17.58;;
48363;SDS011;34170;54.364;18.582;2024-01-30T00:03:44;41.28;;;18.90;;
48363;SDS011;34170;54.364;18.582;2024-01-30T00:06:12;38.38;;;17.92;;
48363;SDS011;34170;54.364;18.582;2024-01-30T00:08:39;35.38;;;17.27;;
48363;SDS011;34170;54.364;18.582;2024-01-30T00:11:07;34.97;;;16.92;;
48363;SDS011;34170;54.364;18.582;2024-01-30T00:13:35;42.20;;;18.30;;
48363;SDS011;34170;54.364;18.582;2024-01-30T00:16:02;38.72;;;17.10;;
48363;SDS011;34170;54.364;18.582;2024-01-30T00:18:31;36.35;;;16.58;;
48363;SDS011;34170;54.364;18.582;2024-01-30T00:20:58;33.55;;;16.92;;
48363;SDS011;34170;54.364;18.582;2024-01-30T00:23:26;36.28;;;17.48;;
48363;SDS011;34170;54.364;18.582;2024-01-30T00:25:53;38.40;;;17.90;;
48363;SDS011;34170;54.364;18.582;2024-01-30T00:28:21;37.75;;;16.98;;
48363;SDS011;34170;54.364;18.582;2024-01-30T00:30:48;35.50;;;17.70;;
48363;SDS011;34170;54.364;18.582;2024-01-30T00:33:16;36.25;;;17.60;;
48363;SDS011;34170;54.364;18.582;2024-01-30T00:35:43;36.30;;;17.35;;
48363;SDS011;34170;54.364;18.582;2024-01-30T00:38:11;38.15;;;18.10;;
48363;SDS011;34170;54.364;18.582;2024-01-30T00:40:39;40.80;;;18.48;;
48363;SDS011;34170;54.364;18.582;2024-01-30T00:43:06;37.55;;;17.33;;
48363;SDS011;34170;54.364;18.582;2024-01-30T00:45:34;38.95;;;16.70;;
48363;SDS011;34170;54.364;18.582;2024-01-30T00:48:01;36.05;;;17.50;;
48363;SDS011;34170;54.364;18.582;2024-01-30T00:50:29;40.35;;;17.90;;
48363;SDS011;34170;54.364;18.582;2024-01-30T00:52:57;42.95;;;18.25;;
48363;SDS011;34170;54.364;18.582;2024-01-30T00:55:24;48.05;;;21.90;;
48363;SDS011;34170;54.364;18.582;2024-01-30T00:57:52;48.30;;;21.13;;
48363;SDS011;34170;54.364;18.582;2024-01-30T01:00:20;49.58;;;23.88;;
48363;SDS011;34170;54.364;18.582;2024-01-30T01:02:48;50.95;;;24.25;;
48363;SDS011;34170;54.364;18.582;2024-01-30T01:05:15;57.75;;;24.45;;
48363;SDS011;34170;54.364;18.582;2024-01-30T01:07:43;57.28;;;26.15;;
48363;SDS011;34170;54.364;18.582;2024-01-30T01:10:11;55.50;;;25.55;;
48363;SDS011;34170;54.364;18.582;2024-01-30T01:12:41;59.97;;;27.52;;
48363;SDS011;34170;54.364;18.582;2024-01-30T01:15:09;63.80;;;27.98;;
48363;SDS011;34170;54.364;18.582;2024-01-30T01:17:37;51.40;;;24.02;;
48363;SDS011;34170;54.364;18.582;2024-01-30T01:20:06;56.42;;;24.85;;
48363;SDS011;34170;54.364;18.582;2024-01-30T01:22:34;60.60;;;26.98;;
48363;SDS011;34170;54.364;18.582;2024-01-30T01:25:02;57.20;;;26.95;;
48363;SDS011;34170;54.364;18.582;2024-01-30T01:27:29;59.90;;;27.60;;
48363;SDS011;34170;54.364;18.582;2024-01-30T01:29:59;66.72;;;29.48;;
48363;SDS011;34170;54.364;18.582;2024-01-30T01:32:27;61.00;;;28.45;;
48363;SDS011;34170;54.364;18.582;2024-01-30T01:34:54;70.07;;;30.83;;
48363;SDS011;34170;54.364;18.582;2024-01-30T01:37:22;66.32;;;29.77;;
48363;SDS011;34170;54.364;18.582;2024-01-30T01:39:50;67.88;;;30.13;;
48363;SDS011;34170;54.364;18.582;2024-01-30T01:42:17;61.30;;;27.85;;
48363;SDS011;34170;54.364;18.582;2024-01-30T01:44:45;57.15;;;26.63;;
48363;SDS011;34170;54.364;18.582;2024-01-30T01:47:12;63.20;;;29.13;;
48363;SDS011;34170;54.364;18.582;2024-01-30T01:49:40;61.00;;;28.67;;
48363;SDS011;34170;54.364;18.582;2024-01-30T01:52:08;59.30;;;28.33;;
48363;SDS011;34170;54.364;18.582;2024-01-30T01:54:36;62.90;;;28.50;;
48363;SDS011;34170;54.364;18.582;2024-01-30T01:57:03;63.03;;;28.15;;
48363;SDS011;34170;54.364;18.582;2024-01-30T01:59:32;55.83;;;25.17;;
48363;SDS011;34170;54.364;18.582;2024-01-30T02:01:59;63.33;;;27.63;;
48363;SDS011;34170;54.364;18.582;2024-01-30T02:04:29;58.75;;;26.55;;
48363;SDS011;34170;54.364;18.582;2024-01-30T02:06:57;67.65;;;28.27;;
48363;SDS011;34170;54.364;18.582;2024-01-30T02:09:25;59.53;;;27.23;;
48363;SDS011;34170;54.364;18.582;2024-01-30T02:11:53;63.95;;;28.17;;
48363;SDS011;34170;54.364;18.582;2024-01-30T02:14:20;64.82;;;27.67;;
48363;SDS011;34170;54.364;18.582;2024-01-30T02:16:48;58.85;;;25.80;;
48363;SDS011;34170;54.364;18.582;2024-01-30T02:19:16;57.50;;;25.15;;
48363;SDS011;34170;54.364;18.582;2024-01-30T02:21:43;57.47;;;26.90;;
48363;SDS011;34170;54.364;18.582;2024-01-30T02:24:12;59.72;;;24.67;;
48363;SDS011;34170;54.364;18.582;2024-01-30T02:26:39;60.47;;;27.70;;
48363;SDS011;34170;54.364;18.582;2024-01-30T02:29:07;60.90;;;26.33;;
48363;SDS011;34170;54.364;18.582;2024-01-30T02:31:35;59.17;;;27.40;;
48363;SDS011;34170;54.364;18.582;2024-01-30T02:34:02;62.45;;;27.17;;
48363;SDS011;34170;54.364;18.582;2024-01-30T02:36:30;57.42;;;24.33;;
48363;SDS011;34170;54.364;18.582;2024-01-30T02:38:58;63.35;;;26.42;;
48363;SDS011;34170;54.364;18.582;2024-01-30T02:41:25;56.95;;;24.48;;
48363;SDS011;34170;54.364;18.582;2024-01-30T02:43:53;57.55;;;25.83;;
48363;SDS011;34170;54.364;18.582;2024-01-30T02:46:20;49.63;;;23.38;;
48363;SDS011;34170;54.364;18.582;2024-01-30T02:48:48;51.60;;;23.45;;
48363;SDS011;34170;54.364;18.582;2024-01-30T02:51:16;57.10;;;25.55;;
48363;SDS011;34170;54.364;18.582;2024-01-30T02:53:44;53.90;;;23.88;;
48363;SDS011;34170;54.364;18.582;2024-01-30T02:56:12;51.63;;;22.45;;
48363;SDS011;34170;54.364;18.582;2024-01-30T02:58:40;50.65;;;25.20;;
48363;SDS011;34170;54.364;18.582;2024-01-30T03:01:08;57.63;;;25.02;;
48363;SDS011;34170;54.364;18.582;2024-01-30T03:03:36;54.05;;;25.98;;
48363;SDS011;34170;54.364;18.582;2024-01-30T03:06:03;54.42;;;24.65;;
48363;SDS011;34170;54.364;18.582;2024-01-30T03:08:31;52.47;;;24.50;;
48363;SDS011;34170;54.364;18.582;2024-01-30T03:10:58;52.33;;;24.98;;
48363;SDS011;34170;54.364;18.582;2024-01-30T03:13:26;56.22;;;26.17;;
48363;SDS011;34170;54.364;18.582;2024-01-30T03:15:54;55.00;;;24.25;;
48363;SDS011;34170;54.364;18.582;2024-01-30T03:18:21;53.10;;;24.10;;
48363;SDS011;34170;54.364;18.582;2024-01-30T03:20:49;51.30;;;24.63;;
48363;SDS011;34170;54.364;18.582;2024-01-30T03:23:16;70.20;;;31.75;;
48363;SDS011;34170;54.364;18.582;2024-01-30T03:25:44;57.25;;;23.77;;
48363;SDS011;34170;54.364;18.582;2024-01-30T03:28:12;58.13;;;25.38;;
48363;SDS011;34170;54.364;18.582;2024-01-30T03:30:39;53.88;;;25.30;;
48363;SDS011;34170;54.364;18.582;2024-01-30T03:33:07;55.05;;;24.77;;
48363;SDS011;34170;54.364;18.582;2024-01-30T03:35:34;50.67;;;23.70;;
48363;SDS011;34170;54.364;18.582;2024-01-30T03:38:02;49.40;;;23.02;;
48363;SDS011;34170;54.364;18.582;2024-01-30T03:40:30;60.20;;;25.75;;
48363;SDS011;34170;54.364;18.582;2024-01-30T03:42:58;50.38;;;24.27;;
48363;SDS011;34170;54.364;18.582;2024-01-30T03:45:25;57.70;;;24.70;;
48363;SDS011;34170;54.364;18.582;2024-01-30T03:47:53;53.22;;;23.38;;
48363;SDS011;34170;54.364;18.582;2024-01-30T03:50:20;50.55;;;24.63;;
48363;SDS011;34170;54.364;18.582;2024-01-30T03:52:48;54.95;;;24.73;;
48363;SDS011;34170;54.364;18.582;2024-01-30T03:55:16;51.28;;;22.88;;
48363;SDS011;34170;54.364;18.582;2024-01-30T03:57:43;54.45;;;24.75;;
48363;SDS011;34170;54.364;18.582;2024-01-30T04:00:11;54.08;;;24.27;;
48363;SDS011;34170;54.364;18.582;2024-01-30T04:02:39;53.33;;;23.65;;
48363;SDS011;34170;54.364;18.582;2024-01-30T04:05:07;55.10;;;25.02;;
48363;SDS011;34170;54.364;18.582;2024-01-30T04:07:35;57.63;;;25.02;;
48363;SDS011;34170;54.364;18.582;2024-01-30T04:10:03;54.28;;;24.55;;
48363;SDS011;34170;54.364;18.582;2024-01-30T04:12:33;56.78;;;25.80;;
48363;SDS011;34170;54.364;18.582;2024-01-30T04:15:00;53.13;;;25.70;;
48363;SDS011;34170;54.364;18.582;2024-01-30T04:17:29;60.20;;;26.98;;
48363;SDS011;34170;54.364;18.582;2024-01-30T04:19:57;58.53;;;27.25;;
48363;SDS011;34170;54.364;18.582;2024-01-30T04:22:25;57.53;;;25.02;;
48363;SDS011;34170;54.364;18.582;2024-01-30T04:24:52;54.42;;;26.73;;
48363;SDS011;34170;54.364;18.582;2024-01-30T04:27:20;58.05;;;26.70;;
48363;SDS011;34170;54.364;18.582;2024-01-30T04:29:47;52.70;;;25.80;;
48363;SDS011;34170;54.364;18.582;2024-01-30T04:32:15;61.83;;;28.13;;
48363;SDS011;34170;54.364;18.582;2024-01-30T04:34:42;55.72;;;26.10;;
48363;SDS011;34170;54.364;18.582;2024-01-30T04:37:10;58.47;;;26.25;;
48363;SDS011;34170;54.364;18.582;2024-01-30T04:39:37;60.20;;;26.98;;
48363;SDS011;34170;54.364;18.582;2024-01-30T04:42:05;53.20;;;26.02;;
48363;SDS011;34170;54.364;18.582;2024-01-30T04:44:35;56.28;;;25.80;;
48363;SDS011;34170;54.364;18.582;2024-01-30T04:47:03;52.97;;;25.33;;
48363;SDS011;34170;54.364;18.582;2024-01-30T04:49:33;57.78;;;26.10;;
48363;SDS011;34170;54.364;18.582;2024-01-30T04:52:00;52.20;;;23.98;;
48363;SDS011;34170;54.364;18.582;2024-01-30T04:54:28;54.40;;;24.50;;
48363;SDS011;34170;54.364;18.582;2024-01-30T04:56:56;51.25;;;22.58;;
48363;SDS011;34170;54.364;18.582;2024-01-30T04:59:23;51.67;;;24.30;;
48363;SDS011;34170;54.364;18.582;2024-01-30T05:01:51;53.15;;;24.60;;
48363;SDS011;34170;54.364;18.582;2024-01-30T05:04:18;54.72;;;23.83;;
48363;SDS011;34170;54.364;18.582;2024-01-30T05:06:46;50.45;;;23.90;;
48363;SDS011;34170;54.364;18.582;2024-01-30T05:09:14;57.63;;;25.08;;
48363;SDS011;34170;54.364;18.582;2024-01-30T05:11:41;50.30;;;25.25;;
48363;SDS011;34170;54.364;18.582;2024-01-30T05:14:09;56.95;;;26.17;;
48363;SDS011;34170;54.364;18.582;2024-01-30T05:16:38;57.35;;;25.25;;
48363;SDS011;34170;54.364;18.582;2024-01-30T05:19:05;60.15;;;26.10;;
48363;SDS011;34170;54.364;18.582;2024-01-30T05:21:33;54.60;;;26.75;;
48363;SDS011;34170;54.364;18.582;2024-01-30T05:24:01;57.78;;;25.02;;
48363;SDS011;34170;54.364;18.582;2024-01-30T05:26:28;55.58;;;25.23;;
48363;SDS011;34170;54.364;18.582;2024-01-30T05:28:56;53.67;;;25.15;;
48363;SDS011;34170;54.364;18.582;2024-01-30T05:31:24;57.97;;;27.05;;
48363;SDS011;34170;54.364;18.582;2024-01-30T05:33:54;52.28;;;25.25;;
48363;SDS011;34170;54.364;18.582;2024-01-30T05:36:22;51.88;;;25.13;;
48363;SDS011;34170;54.364;18.582;2024-01-30T05:38:49;54.00;;;24.50;;
48363;SDS011;34170;54.364;18.582;2024-01-30T05:41:17;48.50;;;24.17;;
48363;SDS011;34170;54.364;18.582;2024-01-30T05:43:45;52.50;;;23.88;;
48363;SDS011;34170;54.364;18.582;2024-01-30T05:46:12;52.50;;;24.25;;
48363;SDS011;34170;54.364;18.582;2024-01-30T05:48:40;48.00;;;22.85;;
48363;SDS011;34170;54.364;18.582;2024-01-30T05:51:07;49.95;;;22.98;;
48363;SDS011;34170;54.364;18.582;2024-01-30T05:53:35;50.50;;;23.63;;
48363;SDS011;34170;54.364;18.582;2024-01-30T05:56:03;48.42;;;22.98;;
48363;SDS011;34170;54.364;18.582;2024-01-30T05:58:31;56.60;;;24.23;;
48363;SDS011;34170;54.364;18.582;2024-01-30T06:00:59;53.45;;;24.10;;
48363;SDS011;34170;54.364;18.582;2024-01-30T06:03:27;53.08;;;24.17;;
48363;SDS011;34170;54.364;18.582;2024-01-30T06:05:54;49.78;;;24.10;;
48363;SDS011;34170;54.364;18.582;2024-01-30T06:08:22;49.38;;;24.13;;
48363;SDS011;34170;54.364;18.582;2024-01-30T06:10:49;52.45;;;23.88;;
48363;SDS011;34170;54.364;18.582;2024-01-30T06:13:17;50.42;;;22.15;;
48363;SDS011;34170;54.364;18.582;2024-01-30T06:15:45;51.50;;;22.70;;
48363;SDS011;34170;54.364;18.582;2024-01-30T06:18:12;44.83;;;21.92;;
48363;SDS011;34170;54.364;18.582;2024-01-30T06:20:40;46.85;;;21.42;;
48363;SDS011;34170;54.364;18.582;2024-01-30T06:23:08;43.95;;;21.20;;
48363;SDS011;34170;54.364;18.582;2024-01-30T06:25:35;48.58;;;21.95;;
48363;SDS011;34170;54.364;18.582;2024-01-30T06:28:03;47.13;;;20.40;;
48363;SDS011;34170;54.364;18.582;2024-01-30T06:30:31;43.08;;;20.77;;
48363;SDS011;34170;54.364;18.582;2024-01-30T06:32:58;43.58;;;21.17;;
48363;SDS011;34170;54.364;18.582;2024-01-30T06:35:26;45.70;;;21.20;;
48363;SDS011;34170;54.364;18.582;2024-01-30T06:37:56;43.03;;;20.17;;
48363;SDS011;34170;54.364;18.582;2024-01-30T06:40:23;44.58;;;20.58;;
48363;SDS011;34170;54.364;18.582;2024-01-30T06:42:51;40.05;;;20.63;;
48363;SDS011;34170;54.364;18.582;2024-01-30T06:45:18;42.75;;;19.45;;
48363;SDS011;34170;54.364;18.582;2024-01-30T06:47:46;43.97;;;20.02;;
48363;SDS011;34170;54.364;18.582;2024-01-30T06:50:14;46.88;;;20.45;;
48363;SDS011;34170;54.364;18.582;2024-01-30T06:52:41;43.20;;;19.83;;
48363;SDS011;34170;54.364;18.582;2024-01-30T06:55:09;41.65;;;20.75;;
48363;SDS011;34170;54.364;18.582;2024-01-30T06:57:37;44.03;;;21.30;;
48363;SDS011;34170;54.364;18.582;2024-01-30T07:00:04;42.85;;;20.15;;
48363;SDS011;34170;54.364;18.582;2024-01-30T07:02:32;43.50;;;19.88;;
48363;SDS011;34170;54.364;18.582;2024-01-30T07:05:00;40.80;;;20.42;;
48363;SDS011;34170;54.364;18.582;2024-01-30T07:07:29;42.35;;;19.83;;
48363;SDS011;34170;54.364;18.582;2024-01-30T07:09:56;43.72;;;19.83;;
48363;SDS011;34170;54.364;18.582;2024-01-30T07:12:24;43.17;;;19.13;;
48363;SDS011;34170;54.364;18.582;2024-01-30T07:14:53;43.90;;;19.15;;
48363;SDS011;34170;54.364;18.582;2024-01-30T07:17:23;49.22;;;19.67;;
48363;SDS011;34170;54.364;18.582;2024-01-30T07:19:52;44.50;;;19.10;;
48363;SDS011;34170;54.364;18.582;2024-01-30T07:22:19;41.28;;;19.40;;
48363;SDS011;34170;54.364;18.582;2024-01-30T07:24:47;48.65;;;21.40;;
48363;SDS011;34170;54.364;18.582;2024-01-30T07:27:16;43.00;;;20.25;;
48363;SDS011;34170;54.364;18.582;2024-01-30T07:29:45;41.15;;;19.70;;
48363;SDS011;34170;54.364;18.582;2024-01-30T07:32:12;42.88;;;20.20;;
48363;SDS011;34170;54.364;18.582;2024-01-30T07:34:40;41.17;;;18.23;;
48363;SDS011;34170;54.364;18.582;2024-01-30T07:37:24;41.83;;;18.58;;
48363;SDS011;34170;54.364;18.582;2024-01-30T07:39:52;39.08;;;18.67;;
48363;SDS011;34170;54.364;18.582;2024-01-30T07:42:20;40.70;;;19.02;;
48363;SDS011;34170;54.364;18.582;2024-01-30T07:44:47;39.65;;;17.95;;
48363;SDS011;34170;54.364;18.582;2024-01-30T07:47:15;36.80;;;17.50;;
48363;SDS011;34170;54.364;18.582;2024-01-30T07:49:42;43.17;;;18.13;;
48363;SDS011;34170;54.364;18.582;2024-01-30T07:52:10;42.42;;;18.35;;
48363;SDS011;34170;54.364;18.582;2024-01-30T07:54:38;39.95;;;17.70;;
48363;SDS011;34170;54.364;18.582;2024-01-30T07:57:06;40.72;;;18.25;;
48363;SDS011;34170;54.364;18.582;2024-01-30T07:59:34;36.00;;;17.90;;
48363;SDS011;34170;54.364;18.582;2024-01-30T08:02:01;37.88;;;18.65;;
48363;SDS011;34170;54.364;18.582;2024-01-30T08:04:29;36.15;;;17.63;;
48363;SDS011;34170;54.364;18.582;2024-01-30T08:06:57;39.55;;;18.73;;
48363;SDS011;34170;54.364;18.582;2024-01-30T08:09:25;41.63;;;17.90;;
48363;SDS011;34170;54.364;18.582;2024-01-30T08:11:52;38.35;;;17.77;;
48363;SDS011;34170;54.364;18.582;2024-01-30T08:14:20;42.42;;;18.35;;
48363;SDS011;34170;54.364;18.582;2024-01-30T08:16:47;42.92;;;18.52;;
48363;SDS011;34170;54.364;18.582;2024-01-30T08:19:15;41.65;;;19.25;;
48363;SDS011;34170;54.364;18.582;2024-01-30T08:21:43;40.05;;;18.90;;
48363;SDS011;34170;54.364;18.582;2024-01-30T08:24:11;38.90;;;18.13;;
48363;SDS011;34170;54.364;18.582;2024-01-30T08:26:38;42.22;;;18.75;;
48363;SDS011;34170;54.364;18.582;2024-01-30T08:29:06;41.00;;;18.08;;
48363;SDS011;34170;54.364;18.582;2024-01-30T08:31:34;44.85;;;19.98;;
48363;SDS011;34170;54.364;18.582;2024-01-30T08:34:02;39.80;;;17.30;;
48363;SDS011;34170;54.364;18.582;2024-01-30T08:36:29;43.40;;;18.55;;
48363;SDS011;34170;54.364;18.582;2024-01-30T08:38:57;44.13;;;19.15;;
48363;SDS011;34170;54.364;18.582;2024-01-30T08:41:30;42.88;;;19.10;;
48363;SDS011;34170;54.364;18.582;2024-01-30T08:43:57;38.92;;;18.98;;
48363;SDS011;34170;54.364;18.582;2024-01-30T08:46:25;36.35;;;18.35;;
48363;SDS011;34170;54.364;18.582;2024-01-30T08:48:53;38.22;;;17.58;;
48363;SDS011;34170;54.364;18.582;2024-01-30T08:51:20;36.92;;;18.02;;
48363;SDS011;34170;54.364;18.582;2024-01-30T08:53:48;36.65;;;18.02;;
48363;SDS011;34170;54.364;18.582;2024-01-30T08:56:15;34.13;;;17.10;;
48363;SDS011;34170;54.364;18.582;2024-01-30T08:58:43;31.52;;;16.45;;
48363;SDS011;34170;54.364;18.582;2024-01-30T09:01:11;36.83;;;18.58;;
48363;SDS011;34170;54.364;18.582;2024-01-30T09:03:39;39.60;;;18.13;;
48363;SDS011;34170;54.364;18.582;2024-01-30T09:06:08;38.28;;;18.27;;
48363;SDS011;34170;54.364;18.582;2024-01-30T09:08:37;31.40;;;17.20;;
48363;SDS011;34170;54.364;18.582;2024-01-30T09:11:08;33.90;;;17.73;;
48363;SDS011;34170;54.364;18.582;2024-01-30T09:13:37;38.75;;;18.40;;
48363;SDS011;34170;54.364;18.582;2024-01-30T09:16:05;35.70;;;17.13;;
48363;SDS011;34170;54.364;18.582;2024-01-30T09:18:33;36.55;;;17.80;;
48363;SDS011;34170;54.364;18.582;2024-01-30T09:21:01;38.42;;;17.38;;
48363;SDS011;34170;54.364;18.582;2024-01-30T09:23:29;34.53;;;17.45;;
48363;SDS011;34170;54.364;18.582;2024-01-30T09:25:56;32.88;;;16.50;;
48363;SDS011;34170;54.364;18.582;2024-01-30T09:28:24;37.30;;;18.15;;
48363;SDS011;34170;54.364;18.582;2024-01-30T09:30:53;30.67;;;16.20;;
48363;SDS011;34170;54.364;18.582;2024-01-30T09:33:21;32.47;;;16.02;;
48363;SDS011;34170;54.364;18.582;2024-01-30T09:35:49;34.25;;;17.77;;
48363;SDS011;34170;54.364;18.582;2024-01-30T09:38:17;31.85;;;16.65;;
48363;SDS011;34170;54.364;18.582;2024-01-30T09:40:44;31.58;;;16.75;;
48363;SDS011;34170;54.364;18.582;2024-01-30T09:43:16;40.33;;;18.48;;
48363;SDS011;34170;54.364;18.582;2024-01-30T09:45:50;39.60;;;20.90;;
48363;SDS011;34170;54.364;18.582;2024-01-30T09:48:18;40.13;;;21.10;;
48363;SDS011;34170;54.364;18.582;2024-01-30T09:50:46;36.15;;;20.48;;
48363;SDS011;34170;54.364;18.582;2024-01-30T09:53:14;39.67;;;20.80;;
48363;SDS011;34170;54.364;18.582;2024-01-30T09:55:42;39.40;;;20.90;;
48363;SDS011;34170;54.364;18.582;2024-01-30T09:58:11;44.08;;;21.45;;
48363;SDS011;34170;54.364;18.582;2024-01-30T10:00:39;38.70;;;20.70;;
48363;SDS011;34170;54.364;18.582;2024-01-30T10:03:07;38.45;;;20.25;;
48363;SDS011;34170;54.364;18.582;2024-01-30T10:05:35;41.80;;;20.52;;
48363;SDS011;34170;54.364;18.582;2024-01-30T10:08:07;41.25;;;21.52;;
48363;SDS011;34170;54.364;18.582;2024-01-30T10:10:35;49.53;;;25.70;;
48363;SDS011;34170;54.364;18.582;2024-01-30T10:13:03;47.35;;;24.08;;
48363;SDS011;34170;54.364;18.582;2024-01-30T10:15:31;45.05;;;25.40;;
48363;SDS011;34170;54.364;18.582;2024-01-30T10:17:59;46.00;;;25.45;;
48363;SDS011;34170;54.364;18.582;2024-01-30T10:20:27;41.75;;;23.38;;
48363;SDS011;34170;54.364;18.582;2024-01-30T10:22:55;47.97;;;22.80;;
48363;SDS011;34170;54.364;18.582;2024-01-30T10:25:23;44.47;;;24.05;;
48363;SDS011;34170;54.364;18.582;2024-01-30T10:27:53;45.50;;;24.77;;
48363;SDS011;34170;54.364;18.582;2024-01-30T10:30:22;50.08;;;25.63;;
48363;SDS011;34170;54.364;18.582;2024-01-30T10:32:50;57.03;;;26.25;;
48363;SDS011;34170;54.364;18.582;2024-01-30T10:35:18;47.30;;;24.15;;
48363;SDS011;34170;54.364;18.582;2024-01-30T10:37:47;46.67;;;24.58;;
48363;SDS011;34170;54.364;18.582;2024-01-30T10:40:15;46.28;;;25.30;;
48363;SDS011;34170;54.364;18.582;2024-01-30T10:42:43;45.88;;;24.10;;
48363;SDS011;34170;54.364;18.582;2024-01-30T10:45:12;43.60;;;23.52;;
48363;SDS011;34170;54.364;18.582;2024-01-30T10:47:49;47.83;;;23.73;;
48363;SDS011;34170;54.364;18.582;2024-01-30T10:50:17;48.13;;;24.15;;
48363;SDS011;34170;54.364;18.582;2024-01-30T10:52:46;45.72;;;23.65;;
48363;SDS011;34170;54.364;18.582;2024-01-30T10:55:14;51.63;;;25.67;;
48363;SDS011;34170;54.364;18.582;2024-01-30T10:57:43;48.10;;;24.05;;
48363;SDS011;34170;54.364;18.582;2024-01-30T11:00:12;49.28;;;26.60;;
48363;SDS011;34170;54.364;18.582;2024-01-30T11:05:12;47.33;;;22.85;;
48363;SDS011;34170;54.364;18.582;2024-01-30T11:07:40;44.75;;;23.35;;
48363;SDS011;34170;54.364;18.582;2024-01-30T11:10:08;46.88;;;23.58;;
48363;SDS011;34170;54.364;18.582;2024-01-30T11:12:37;45.28;;;24.02;;
48363;SDS011;34170;54.364;18.582;2024-01-30T11:15:14;48.30;;;22.88;;
48363;SDS011;34170;54.364;18.582;2024-01-30T11:23:03;50.55;;;25.13;;
48363;SDS011;34170;54.364;18.582;2024-01-30T11:25:34;44.70;;;23.63;;
48363;SDS011;34170;54.364;18.582;2024-01-30T11:28:02;52.55;;;26.48;;
48363;SDS011;34170;54.364;18.582;2024-01-30T11:30:31;49.22;;;25.27;;
48363;SDS011;34170;54.364;18.582;2024-01-30T11:33:00;50.67;;;24.20;;
48363;SDS011;34170;54.364;18.582;2024-01-30T11:35:33;57.03;;;26.63;;
48363;SDS011;34170;54.364;18.582;2024-01-30T11:38:11;52.47;;;25.13;;
48363;SDS011;34170;54.364;18.582;2024-01-30T11:40:41;46.75;;;23.33;;
48363;SDS011;34170;54.364;18.582;2024-01-30T11:43:09;49.35;;;23.52;;
48363;SDS011;34170;54.364;18.582;2024-01-30T11:45:37;45.10;;;20.45;;
48363;SDS011;34170;54.364;18.582;2024-01-30T11:48:05;50.78;;;23.25;;
48363;SDS011;34170;54.364;18.582;2024-01-30T11:50:34;48.90;;;23.00;;
48363;SDS011;34170;54.364;18.582;2024-01-30T11:53:02;40.53;;;20.60;;
48363;SDS011;34170;54.364;18.582;2024-01-30T11:55:31;45.35;;;21.55;;
48363;SDS011;34170;54.364;18.582;2024-01-30T11:58:01;53.38;;;21.33;;
48363;SDS011;34170;54.364;18.582;2024-01-30T12:00:30;43.40;;;20.85;;
48363;SDS011;34170;54.364;18.582;2024-01-30T12:03:02;40.08;;;20.13;;
48363;SDS011;34170;54.364;18.582;2024-01-30T12:05:31;44.83;;;20.15;;
48363;SDS011;34170;54.364;18.582;2024-01-30T12:07:59;42.53;;;19.35;;
48363;SDS011;34170;54.364;18.582;2024-01-30T12:10:28;43.20;;;19.55;;
48363;SDS011;34170;54.364;18.582;2024-01-30T12:12:57;45.22;;;20.60;;
48363;SDS011;34170;54.364;18.582;2024-01-30T12:15:25;41.35;;;19.80;;
48363;SDS011;34170;54.364;18.582;2024-01-30T12:18:03;37.13;;;17.70;;
48363;SDS011;34170;54.364;18.582;2024-01-30T12:20:31;41.80;;;19.70;;
48363;SDS011;34170;54.364;18.582;2024-01-30T12:22:59;42.50;;;19.00;;
48363;SDS011;34170;54.364;18.582;2024-01-30T12:25:26;38.70;;;19.45;;
48363;SDS011;34170;54.364;18.582;2024-01-30T12:27:54;32.83;;;17.55;;
48363;SDS011;34170;54.364;18.582;2024-01-30T12:30:22;35.50;;;18.05;;
48363;SDS011;34170;54.364;18.582;2024-01-30T12:32:50;37.35;;;18.08;;
48363;SDS011;34170;54.364;18.582;2024-01-30T12:35:19;32.92;;;16.33;;
48363;SDS011;34170;54.364;18.582;2024-01-30T12:37:48;36.08;;;18.23;;
48363;SDS011;34170;54.364;18.582;2024-01-30T12:40:17;34.65;;;16.48;;
48363;SDS011;34170;54.364;18.582;2024-01-30T12:42:46;39.35;;;17.27;;
48363;SDS011;34170;54.364;18.582;2024-01-30T12:45:17;37.05;;;17.83;;
48363;SDS011;34170;54.364;18.582;2024-01-30T12:47:50;37.50;;;16.00;;
48363;SDS011;34170;54.364;18.582;2024-01-30T12:50:19;36.63;;;16.73;;
48363;SDS011;34170;54.364;18.582;2024-01-30T12:52:46;33.95;;;16.15;;
48363;SDS011;34170;54.364;18.582;2024-01-30T12:55:16;32.75;;;15.90;;
48363;SDS011;34170;54.364;18.582;2024-01-30T12:57:45;31.17;;;16.17;;
48363;SDS011;34170;54.364;18.582;2024-01-30T13:00:13;32.67;;;16.85;;
48363;SDS011;34170;54.364;18.582;2024-01-30T13:02:45;31.27;;;15.73;;
48363;SDS011;34170;54.364;18.582;2024-01-30T13:05:12;34.40;;;16.15;;
48363;SDS011;34170;54.364;18.582;2024-01-30T13:07:40;33.58;;;16.48;;
48363;SDS011;34170;54.364;18.582;2024-01-30T13:10:08;38.22;;;17.52;;
48363;SDS011;34170;54.364;18.582;2024-01-30T13:12:36;37.05;;;16.35;;
48363;SDS011;34170;54.364;18.582;2024-01-30T13:15:06;31.30;;;16.45;;
48363;SDS011;34170;54.364;18.582;2024-01-30T13:17:33;35.80;;;15.75;;
48363;SDS011;34170;54.364;18.582;2024-01-30T13:20:01;31.75;;;15.90;;
48363;SDS011;34170;54.364;18.582;2024-01-30T13:22:38;30.35;;;15.50;;
48363;SDS011;34170;54.364;18.582;2024-01-30T13:25:07;26.92;;;13.75;;
48363;SDS011;34170;54.364;18.582;2024-01-30T13:27:35;34.03;;;16.17;;
48363;SDS011;34170;54.364;18.582;2024-01-30T13:30:06;32.90;;;15.80;;
48363;SDS011;34170;54.364;18.582;2024-01-30T13:32:35;37.10;;;18.27;;
48363;SDS011;34170;54.364;18.582;2024-01-30T13:35:03;35.35;;;16.98;;
48363;SDS011;34170;54.364;18.582;2024-01-30T13:37:31;42.80;;;17.20;;
48363;SDS011;34170;54.364;18.582;2024-01-30T13:39:59;36.47;;;16.83;;
48363;SDS011;34170;54.364;18.582;2024-01-30T13:42:30;38.30;;;16.52;;
48363;SDS011;34170;54.364;18.582;2024-01-30T13:44:58;30.88;;;15.75;;
48363;SDS011;34170;54.364;18.582;2024-01-30T13:47:26;34.45;;;15.95;;
48363;SDS011;34170;54.364;18.582;2024-01-30T13:49:54;33.08;;;16.23;;
48363;SDS011;34170;54.364;18.582;2024-01-30T13:52:21;36.08;;;16.20;;
48363;SDS011;34170;54.364;18.582;2024-01-30T13:54:57;30.48;;;15.25;;
48363;SDS011;34170;54.364;18.582;2024-01-30T13:57:25;35.70;;;16.73;;
48363;SDS011;34170;54.364;18.582;2024-01-30T13:59:53;38.17;;;16.13;;
48363;SDS011;34170;54.364;18.582;2024-01-30T14:02:20;35.20;;;16.05;;
48363;SDS011;34170;54.364;18.582;2024-01-30T14:04:48;35.25;;;16.52;;
48363;SDS011;34170;54.364;18.582;2024-01-30T14:07:16;33.00;;;15.77;;
48363;SDS011;34170;54.364;18.582;2024-01-30T14:09:46;37.67;;;17.95;;
48363;SDS011;34170;54.364;18.582;2024-01-30T14:12:15;43.58;;;19.60;;
48363;SDS011;34170;54.364;18.582;2024-01-30T14:14:42;36.50;;;17.02;;
48363;SDS011;34170;54.364;18.582;2024-01-30T14:17:10;35.40;;;17.92;;
48363;SDS011;34170;54.364;18.582;2024-01-30T14:19:38;34.92;;;16.27;;
48363;SDS011;34170;54.364;18.582;2024-01-30T14:22:06;43.90;;;18.45;;